Time;durP1;ratioP1;P1;durP2;ratioP2;P2;SDS_P1;SDS_P2;PMS_P1;PMS_P2;Temp;Humidity;BMP_temperature;BMP_pressure;BME280_temperature;BME280_humidity;BME280_pressure;Samples;Min_cycle;Max_cycle;Signal;HPM_P1;HPM_P2
2023/09/20 00:00:54;;;;;;;;;;;21.20;67.70;;;;;;5073115;28;19908;-55
2023/09/20 00:03:19;;;;;;;;;;;21.30;67.80;;;;;;5079891;28;19908;-56
2023/09/20 00:05:49;;;;;;;;;;;21.20;67.70;;;;;;5073147;28;19969;-58
2023/09/20 00:08:15;;;;;;;;;;;21.20;67.70;;;;;;5073154;28;19909;-55
2023/09/20 00:10:40;;;;;;;;;;;21.20;67.70;;;;;;5072945;28;19908;-55
2023/09/20 00:13:10;;;;;;;;;;;21.20;67.70;;;;;;5072763;28;20458;-56
2023/09/20 00:15:35;;;;;;;;;;;21.20;67.80;;;;;;5072922;28;19962;-55
2023/09/20 00:18:01;;;;;;;;;;;21.20;67.70;;;;;;5072877;28;20003;-55
2023/09/20 00:20:26;;;;;;;;;;;21.20;67.70;;;;;;5072960;28;19915;-55
2023/09/20 00:22:52;;;;;;;;;;;21.20;67.70;;;;;;5072701;28;19981;-55
2023/09/20 00:25:17;;;;;;;;;;;21.20;67.70;;;;;;5072757;28;19965;-55
2023/09/20 00:27:46;;;;;;;;;;;21.20;67.80;;;;;;5071546;28;20361;-55
2023/09/20 00:30:14;;;;;;;;;;;21.20;67.70;;;;;;5072991;28;19913;-55
2023/09/20 00:32:40;;;;;;;;;;;21.20;67.70;;;;;;5071459;28;19913;-55
2023/09/20 00:35:08;;;;;;;;;;;21.10;67.60;;;;;;5072921;28;19923;-55
2023/09/20 00:37:34;;;;;;;;;;;21.20;67.80;;;;;;5072826;28;19958;-56
2023/09/20 00:39:59;;;;;;;;;;;21.20;67.70;;;;;;5072636;28;20292;-55
2023/09/20 00:42:27;;;;;;;;;;;21.20;67.70;;;;;;5072606;28;19998;-56
2023/09/20 00:44:53;;;;;;;;;;;21.20;67.70;;;;;;5072658;28;19908;-55
2023/09/20 00:47:20;;;;;;;;;;;21.10;67.60;;;;;;5072715;28;20387;-56
2023/09/20 00:49:46;;;;;;;;;;;21.20;67.70;;;;;;5072808;28;19917;-55
2023/09/20 00:52:12;;;;;;;;;;;21.20;67.70;;;;;;5072567;28;19916;-55
2023/09/20 00:54:38;;;;;;;;;;;21.20;67.70;;;;;;5071277;28;19923;-55
2023/09/20 00:57:05;;;;;;;;;;;21.20;67.70;;;;;;5072495;28;19909;-56
2023/09/20 00:59:32;;;;;;;;;;;21.20;67.80;;;;;;5071580;28;19974;-55
2023/09/20 01:01:58;;;;;;;;;;;21.20;67.70;;;;;;5072598;28;20314;-55
2023/09/20 01:04:23;;;;;;;;;;;21.20;67.70;;;;;;5072648;28;20395;-55
2023/09/20 01:06:50;;;;;;;;;;;21.20;67.70;;;;;;5072432;28;19912;-55
2023/09/20 01:09:16;;;;;;;;;;;21.20;67.70;;;;;;5076079;28;20372;-55
2023/09/20 01:11:41;;;;;;;;;;;21.20;67.70;;;;;;5076239;28;19954;-55
2023/09/20 01:14:07;;;;;;;;;;;21.20;67.70;;;;;;5074853;28;19956;-55
2023/09/20 01:16:33;;;;;;;;;;;21.20;67.80;;;;;;5075939;28;19908;-55
2023/09/20 01:18:58;;;;;;;;;;;21.10;67.60;;;;;;5074669;28;20368;-55
2023/09/20 01:21:24;;;;;;;;;;;21.20;67.70;;;;;;5076076;28;19908;-56
2023/09/20 01:23:49;;;;;;;;;;;21.20;67.80;;;;;;5076078;28;19909;-55
2023/09/20 01:26:14;;;;;;;;;;;21.20;67.80;;;;;;5075854;28;19908;-55
2023/09/20 01:28:40;;;;;;;;;;;21.20;67.80;;;;;;5076012;28;20262;-55
2023/09/20 01:31:06;;;;;;;;;;;21.10;67.60;;;;;;5075947;28;19912;-55
2023/09/20 01:33:33;;;;;;;;;;;21.10;67.80;;;;;;5075865;28;19919;-55
2023/09/20 01:35:58;;;;;;;;;;;21.10;67.80;;;;;;5074652;28;20283;-55
2023/09/20 01:38:26;;;;;;;;;;;21.10;67.60;;;;;;5075691;28;19908;-55
2023/09/20 01:40:55;;;;;;;;;;;21.20;67.80;;;;;;5075695;28;19915;-56
2023/09/20 01:43:22;;;;;;;;;;;21.20;67.70;;;;;;5075691;28;19908;-56
2023/09/20 01:45:47;;;;;;;;;;;21.10;67.60;;;;;;5075837;28;20365;-55
2023/09/20 01:48:13;;;;;;;;;;;21.10;67.70;;;;;;5075697;28;19909;-56
2023/09/20 01:50:41;;;;;;;;;;;21.10;67.80;;;;;;5057574;28;19970;-55
2023/09/20 01:53:08;;;;;;;;;;;21.10;67.80;;;;;;5075164;28;19928;-55
2023/09/20 01:55:36;;;;;;;;;;;21.10;67.60;;;;;;5075401;28;20426;-56
2023/09/20 01:58:12;;;;;;;;;;;21.20;67.70;;;;;;5075334;28;20364;-56
2023/09/20 02:00:40;;;;;;;;;;;21.10;67.60;;;;;;5075305;28;20368;-55
2023/09/20 02:03:08;;;;;;;;;;;21.10;67.60;;;;;;5073956;28;19908;-56
2023/09/20 02:05:36;;;;;;;;;;;21.10;67.60;;;;;;5075168;28;20003;-55
2023/09/20 02:08:02;;;;;;;;;;;21.10;67.60;;;;;;5075078;28;19912;-55
2023/09/20 02:10:28;;;;;;;;;;;21.10;67.60;;;;;;5075162;28;19942;-55
2023/09/20 02:12:54;;;;;;;;;;;21.10;67.60;;;;;;5074919;28;19955;-55
2023/09/20 02:15:20;;;;;;;;;;;21.10;67.60;;;;;;5075019;28;19908;-56
2023/09/20 02:17:46;;;;;;;;;;;21.10;67.70;;;;;;5074817;28;20288;-55
2023/09/20 02:20:12;;;;;;;;;;;21.10;67.70;;;;;;5073915;28;19909;-55
2023/09/20 02:22:38;;;;;;;;;;;21.10;67.80;;;;;;5073600;28;19908;-55
2023/09/20 02:25:07;;;;;;;;;;;21.10;67.80;;;;;;5074720;28;19948;-55
2023/09/20 02:27:34;;;;;;;;;;;21.10;67.60;;;;;;5074743;28;19909;-56
2023/09/20 02:29:59;;;;;;;;;;;21.10;67.80;;;;;;5073400;28;19908;-55
2023/09/20 02:32:25;;;;;;;;;;;21.10;68.00;;;;;;5074713;28;19915;-55
2023/09/20 02:34:51;;;;;;;;;;;21.00;68.10;;;;;;5074510;28;19962;-55
2023/09/20 02:37:17;;;;;;;;;;;21.00;68.20;;;;;;5073340;28;19921;-55
2023/09/20 02:39:42;;;;;;;;;;;21.00;68.30;;;;;;5074552;28;19915;-55
2023/09/20 02:42:08;;;;;;;;;;;21.10;68.40;;;;;;5074345;28;19916;-55
2023/09/20 02:44:34;;;;;;;;;;;21.00;68.40;;;;;;5074453;28;19917;-56
2023/09/20 02:46:59;;;;;;;;;;;21.00;68.40;;;;;;5074366;28;20359;-56
2023/09/20 02:49:25;;;;;;;;;;;21.10;68.40;;;;;;5074261;28;19909;-55
2023/09/20 02:51:52;;;;;;;;;;;21.10;68.40;;;;;;5074154;28;19916;-55
2023/09/20 02:54:18;;;;;;;;;;;21.10;68.40;;;;;;5073025;28;20455;-56
2023/09/20 02:56:44;;;;;;;;;;;21.10;69.30;;;;;;5074034;28;19913;-55
2023/09/20 02:59:10;;;;;;;;;;;21.10;68.50;;;;;;5074118;28;19915;-55
2023/09/20 03:01:35;;;;;;;;;;;21.10;68.60;;;;;;5072674;28;19912;-55
2023/09/20 03:04:01;;;;;;;;;;;21.10;68.50;;;;;;5074010;28;20261;-55
2023/09/20 03:06:29;;;;;;;;;;;21.10;68.50;;;;;;5073963;28;19916;-55
2023/09/20 03:08:54;;;;;;;;;;;21.10;68.70;;;;;;5073931;28;19912;-55
2023/09/20 03:11:25;;;;;;;;;;;21.00;68.70;;;;;;5074008;28;19916;-55
2023/09/20 03:13:51;;;;;;;;;;;21.00;68.90;;;;;;5078157;28;19916;-55
2023/09/20 03:16:18;;;;;;;;;;;21.00;69.10;;;;;;5073851;28;19955;-55
2023/09/20 03:18:45;;;;;;;;;;;21.00;69.10;;;;;;5073740;28;19930;-56
2023/09/20 03:21:10;;;;;;;;;;;21.00;69.10;;;;;;5073658;28;19909;-55
2023/09/20 03:23:37;;;;;;;;;;;21.00;69.20;;;;;;5073638;28;19913;-55
2023/09/20 03:26:03;;;;;;;;;;;21.00;69.20;;;;;;5073386;28;19909;-55
2023/09/20 03:28:28;;;;;;;;;;;21.00;69.10;;;;;;5073590;28;20057;-55
2023/09/20 03:30:56;;;;;;;;;;;21.10;69.10;;;;;;5073715;28;19908;-55
2023/09/20 03:33:22;;;;;;;;;;;21.10;69.10;;;;;;5073288;28;20265;-55
2023/09/20 03:35:47;;;;;;;;;;;21.10;69.20;;;;;;5073359;28;19963;-56
2023/09/20 03:38:14;;;;;;;;;;;21.10;69.20;;;;;;5073410;28;19909;-55
2023/09/20 03:40:41;;;;;;;;;;;21.00;69.20;;;;;;5073418;28;20322;-55
2023/09/20 03:43:08;;;;;;;;;;;21.10;69.30;;;;;;5073190;28;19912;-55
2023/09/20 03:45:33;;;;;;;;;;;21.00;69.10;;;;;;5073376;28;20342;-55
2023/09/20 03:48:01;;;;;;;;;;;21.10;69.20;;;;;;5073048;28;19908;-56
2023/09/20 03:50:26;;;;;;;;;;;21.00;69.20;;;;;;5073172;28;19913;-55
2023/09/20 03:52:52;;;;;;;;;;;21.10;69.20;;;;;;5072824;28;20030;-55
2023/09/20 03:55:18;;;;;;;;;;;21.00;69.20;;;;;;5072983;28;19908;-55
2023/09/20 03:57:44;;;;;;;;;;;21.10;69.20;;;;;;5073064;28;20003;-55
2023/09/20 04:00:44;;;;;;;;;;;21.10;69.20;;;;;;5073079;28;20025;-55
2023/09/20 04:03:05;;;;;;;;;;;21.10;69.20;;;;;;5072052;28;19932;-55
2023/09/20 04:05:33;;;;;;;;;;;21.10;69.30;;;;;;5072955;28;20296;-55
2023/09/20 04:08:00;;;;;;;;;;;21.00;69.30;;;;;;5072902;28;19908;-56
2023/09/20 04:10:26;;;;;;;;;;;21.00;69.40;;;;;;5072863;28;19913;-55
2023/09/20 04:12:52;;;;;;;;;;;21.00;69.60;;;;;;5072673;28;19913;-56
2023/09/20 04:15:17;;;;;;;;;;;21.00;69.60;;;;;;5072822;28;19909;-55
2023/09/20 04:17:43;;;;;;;;;;;21.00;69.60;;;;;;5072805;28;20331;-55
2023/09/20 04:20:09;;;;;;;;;;;21.00;69.60;;;;;;5072796;28;19999;-54
2023/09/20 04:22:37;;;;;;;;;;;21.00;69.40;;;;;;5072796;28;19914;-55
2023/09/20 04:25:04;;;;;;;;;;;21.00;69.30;;;;;;5072723;28;19909;-55
2023/09/20 04:27:31;;;;;;;;;;;21.00;69.30;;;;;;5072824;28;19961;-55
2023/09/20 04:29:56;;;;;;;;;;;21.00;69.30;;;;;;5072789;28;19957;-55
2023/09/20 04:32:22;;;;;;;;;;;21.00;69.30;;;;;;5072645;28;20261;-55
2023/09/20 04:34:47;;;;;;;;;;;21.00;69.20;;;;;;5072533;28;19913;-55
2023/09/20 04:37:13;;;;;;;;;;;21.10;69.20;;;;;;5072619;28;19962;-56
2023/09/20 04:39:39;;;;;;;;;;;21.00;69.20;;;;;;5072776;28;20357;-55
2023/09/20 04:42:07;;;;;;;;;;;21.00;69.20;;;;;;5072807;28;19912;-55
2023/09/20 04:44:32;;;;;;;;;;;21.00;69.20;;;;;;5076641;28;19915;-55
2023/09/20 04:46:58;;;;;;;;;;;21.00;69.20;;;;;;5076656;28;20292;-55
2023/09/20 04:49:23;;;;;;;;;;;21.10;69.20;;;;;;5076480;28;19974;-56
2023/09/20 04:51:49;;;;;;;;;;;21.00;69.20;;;;;;5076255;28;19970;-55
2023/09/20 04:54:15;;;;;;;;;;;21.00;69.30;;;;;;5076401;28;19916;-55
2023/09/20 04:56:47;;;;;;;;;;;21.00;69.30;;;;;;5075477;28;21769;-55
2023/09/20 04:59:16;;;;;;;;;;;21.00;69.30;;;;;;5083012;28;19940;-55
2023/09/20 05:01:44;;;;;;;;;;;21.00;69.40;;;;;;5076205;28;19934;-55
2023/09/20 05:04:13;;;;;;;;;;;21.00;69.40;;;;;;5076198;28;20330;-55
2023/09/20 05:06:42;;;;;;;;;;;21.00;69.40;;;;;;5076102;28;19909;-55
2023/09/20 05:09:07;;;;;;;;;;;21.00;69.40;;;;;;5076127;28;19917;-55
2023/09/20 05:11:33;;;;;;;;;;;21.00;69.30;;;;;;5076262;28;20361;-55
2023/09/20 05:13:58;;;;;;;;;;;21.00;69.30;;;;;;5074661;28;20378;-55
2023/09/20 05:16:24;;;;;;;;;;;21.00;69.20;;;;;;5075955;28;19908;-56
2023/09/20 05:18:50;;;;;;;;;;;21.00;69.30;;;;;;5075882;28;19951;-55
2023/09/20 05:21:16;;;;;;;;;;;21.00;69.30;;;;;;5075899;28;19916;-55
2023/09/20 05:23:42;;;;;;;;;;;21.00;69.30;;;;;;5075725;28;19956;-56
2023/09/20 05:26:07;;;;;;;;;;;21.00;69.20;;;;;;5075782;28;19908;-55
2023/09/20 05:28:33;;;;;;;;;;;21.00;69.30;;;;;;5075750;28;19908;-56
2023/09/20 05:31:00;;;;;;;;;;;21.00;69.30;;;;;;5076046;28;19931;-55
2023/09/20 05:33:25;;;;;;;;;;;21.00;69.30;;;;;;5075724;28;19974;-55
2023/09/20 05:35:52;;;;;;;;;;;21.00;69.40;;;;;;5075772;28;19909;-55
2023/09/20 05:38:17;;;;;;;;;;;20.90;69.40;;;;;;5075559;28;19913;-55
2023/09/20 05:40:43;;;;;;;;;;;21.00;69.40;;;;;;5074342;28;19915;-55
2023/09/20 05:43:08;;;;;;;;;;;21.00;69.30;;;;;;5075569;28;20311;-56
2023/09/20 05:45:34;;;;;;;;;;;21.00;69.30;;;;;;5075583;28;19909;-55
2023/09/20 05:48:03;;;;;;;;;;;21.00;69.20;;;;;;5074362;28;20400;-55
2023/09/20 05:50:35;;;;;;;;;;;21.00;69.20;;;;;;5075628;28;20384;-56
2023/09/20 05:53:04;;;;;;;;;;;21.00;69.20;;;;;;5075324;28;19968;-55
2023/09/20 05:55:32;;;;;;;;;;;21.00;69.20;;;;;;5074216;28;19955;-56
2023/09/20 05:57:58;;;;;;;;;;;21.00;69.30;;;;;;5075299;28;20292;-55
2023/09/20 06:00:23;;;;;;;;;;;21.00;69.30;;;;;;5075430;28;19908;-55
2023/09/20 06:02:51;;;;;;;;;;;21.00;69.20;;;;;;5075114;28;19909;-55
2023/09/20 06:05:18;;;;;;;;;;;21.00;69.40;;;;;;5075232;28;19962;-55
2023/09/20 06:07:44;;;;;;;;;;;21.00;69.30;;;;;;5075404;28;19908;-56
2023/09/20 06:10:10;;;;;;;;;;;21.00;69.30;;;;;;5075069;28;20287;-55
2023/09/20 06:12:36;;;;;;;;;;;21.00;69.30;;;;;;5075136;28;19946;-55
2023/09/20 06:15:02;;;;;;;;;;;20.90;69.30;;;;;;5074772;28;19920;-55
2023/09/20 06:17:28;;;;;;;;;;;20.90;69.50;;;;;;5074944;28;19920;-55
2023/09/20 06:19:56;;;;;;;;;;;20.90;69.60;;;;;;5074861;28;20356;-56
2023/09/20 06:22:22;;;;;;;;;;;20.90;69.50;;;;;;5073855;28;20286;-55
2023/09/20 06:24:48;;;;;;;;;;;21.00;69.60;;;;;;5074929;28;19908;-55
2023/09/20 06:27:13;;;;;;;;;;;21.00;69.50;;;;;;5074796;28;19954;-56
2023/09/20 06:29:39;;;;;;;;;;;21.00;69.40;;;;;;5074742;28;19959;-55
2023/09/20 06:32:04;;;;;;;;;;;21.00;69.40;;;;;;5074622;28;19908;-56
2023/09/20 06:34:30;;;;;;;;;;;21.00;69.50;;;;;;5074588;28;19960;-55
2023/09/20 06:36:55;;;;;;;;;;;21.00;69.50;;;;;;5074629;28;20269;-56
2023/09/20 06:39:21;;;;;;;;;;;21.00;69.60;;;;;;5074577;28;19954;-55
2023/09/20 06:41:48;;;;;;;;;;;21.00;69.70;;;;;;5074614;28;20365;-56
2023/09/20 06:44:13;;;;;;;;;;;21.00;69.70;;;;;;5074595;28;19909;-56
2023/09/20 06:46:42;;;;;;;;;;;20.90;69.70;;;;;;5074500;28;20368;-56
2023/09/20 06:49:08;;;;;;;;;;;20.90;69.70;;;;;;5074498;28;19919;-56
2023/09/20 06:51:34;;;;;;;;;;;20.90;69.70;;;;;;5072928;28;19920;-55
2023/09/20 06:53:59;;;;;;;;;;;21.00;69.80;;;;;;5074093;28;19965;-55
2023/09/20 06:56:25;;;;;;;;;;;21.00;69.80;;;;;;5074017;28;19995;-55
2023/09/20 06:58:55;;;;;;;;;;;21.00;69.90;;;;;;5073960;28;19908;-55
2023/09/20 07:01:20;;;;;;;;;;;21.00;69.80;;;;;;5073923;28;19915;-55
2023/09/20 07:03:46;;;;;;;;;;;21.00;69.90;;;;;;5074002;28;20364;-55
2023/09/20 07:06:12;;;;;;;;;;;21.00;70.00;;;;;;5072272;28;20004;-56
2023/09/20 07:08:37;;;;;;;;;;;21.00;69.90;;;;;;5073964;28;20262;-56
2023/09/20 07:11:04;;;;;;;;;;;21.00;69.80;;;;;;5073683;28;19912;-56
2023/09/20 07:13:32;;;;;;;;;;;21.00;69.80;;;;;;5073646;28;19912;-56
2023/09/20 07:15:58;;;;;;;;;;;21.00;69.90;;;;;;5073687;28;20265;-56
2023/09/20 07:18:23;;;;;;;;;;;21.00;69.90;;;;;;5073925;28;19935;-55
2023/09/20 07:20:54;;;;;;;;;;;21.00;70.00;;;;;;5073593;28;20364;-55
2023/09/20 07:23:20;;;;;;;;;;;21.00;70.10;;;;;;5080447;28;20361;-55
2023/09/20 07:25:48;;;;;;;;;;;21.00;70.10;;;;;;5073503;28;19915;-55
2023/09/20 07:28:16;;;;;;;;;;;20.90;70.20;;;;;;5073800;28;19916;-55
2023/09/20 07:30:44;;;;;;;;;;;20.90;70.30;;;;;;5073499;28;19935;-55
2023/09/20 07:33:11;;;;;;;;;;;20.90;70.30;;;;;;5073587;28;19916;-55
2023/09/20 07:35:48;;;;;;;;;;;20.90;70.30;;;;;;5073391;28;19999;-55
2023/09/20 07:38:27;;;;;;;;;;;20.90;70.30;;;;;;5073391;28;19909;-55
2023/09/20 07:40:53;;;;;;;;;;;20.90;70.30;;;;;;5073666;28;19999;-55
2023/09/20 07:43:19;;;;;;;;;;;20.90;70.30;;;;;;5073329;28;19908;-56
2023/09/20 07:45:45;;;;;;;;;;;20.90;70.20;;;;;;5073270;28;19909;-55
2023/09/20 07:48:12;;;;;;;;;;;21.00;70.30;;;;;;5073289;28;20369;-55
2023/09/20 07:50:40;;;;;;;;;;;20.90;70.30;;;;;;5073374;28;19921;-55
2023/09/20 07:53:14;;;;;;;;;;;21.00;70.30;;;;;;5073005;28;19928;-55
2023/09/20 07:55:48;;;;;;;;;;;20.90;70.20;;;;;;5073234;28;20019;-55
2023/09/20 07:58:14;;;;;;;;;;;21.00;70.30;;;;;;5073088;28;20322;-55
2023/09/20 08:00:40;;;;;;;;;;;20.90;70.30;;;;;;5071999;28;19913;-55
2023/09/20 08:03:05;;;;;;;;;;;20.90;70.30;;;;;;5073051;28;20315;-55
2023/09/20 08:05:33;;;;;;;;;;;20.90;70.30;;;;;;5073234;28;19927;-55
2023/09/20 08:07:58;;;;;;;;;;;20.90;70.30;;;;;;5073130;28;20430;-55
2023/09/20 08:10:24;;;;;;;;;;;21.00;70.40;;;;;;5073193;28;19909;-55
2023/09/20 08:12:49;;;;;;;;;;;21.00;70.40;;;;;;5072953;28;20360;-55
2023/09/20 08:15:15;;;;;;;;;;;21.00;70.30;;;;;;5073016;28;20284;-55
2023/09/20 08:20:26;;;;;;;;;;;21.00;70.20;;;;;;5072999;28;19915;-55
2023/09/20 09:01:12;;;;;;;;;;;21.20;70.80;;;;;;5072713;28;19915;-56
2023/09/20 09:03:38;;;;;;;;;;;21.20;70.80;;;;;;5072598;28;19909;-56
2023/09/20 09:06:04;;;;;;;;;;;21.20;70.80;;;;;;5071339;28;20007;-55
2023/09/20 09:08:29;;;;;;;;;;;21.20;70.80;;;;;;5072634;28;19999;-56
2023/09/20 09:10:55;;;;;;;;;;;21.20;70.80;;;;;;5072611;28;19908;-56
2023/09/20 09:13:20;;;;;;;;;;;21.20;70.90;;;;;;5072306;28;19916;-56
2023/09/20 09:15:47;;;;;;;;;;;21.20;70.80;;;;;;5071277;28;19909;-56
2023/09/20 09:18:15;;;;;;;;;;;21.20;71.00;;;;;;5072346;28;19915;-56
2023/09/20 09:20:41;;;;;;;;;;;21.20;70.90;;;;;;5072462;28;19943;-56
2023/09/20 09:23:06;;;;;;;;;;;21.20;70.80;;;;;;5070977;28;19955;-57
2023/09/20 09:25:31;;;;;;;;;;;21.20;70.70;;;;;;5072457;28;19958;-56
2023/09/20 09:27:57;;;;;;;;;;;21.20;70.70;;;;;;5072238;28;19916;-56
2023/09/20 09:30:23;;;;;;;;;;;21.20;70.70;;;;;;5076076;28;19916;-56
2023/09/20 09:32:50;;;;;;;;;;;21.20;70.90;;;;;;5075641;28;19915;-56
2023/09/20 09:35:19;;;;;;;;;;;21.20;71.20;;;;;;5076079;28;20395;-56
2023/09/20 09:37:44;;;;;;;;;;;21.20;71.20;;;;;;5075867;28;19951;-56
2023/09/20 09:40:11;;;;;;;;;;;21.20;71.10;;;;;;5075717;28;19917;-56
2023/09/20 09:42:39;;;;;;;;;;;21.20;71.00;;;;;;5075695;28;19915;-56
2023/09/20 09:45:06;;;;;;;;;;;21.20;71.00;;;;;;5075846;28;19916;-56
2023/09/20 09:47:34;;;;;;;;;;;21.20;71.00;;;;;;5075704;28;19912;-56
2023/09/20 09:49:59;;;;;;;;;;;21.30;71.10;;;;;;5074314;28;19909;-56
2023/09/20 09:52:25;;;;;;;;;;;21.30;71.10;;;;;;5075858;28;19943;-56
2023/09/20 09:54:50;;;;;;;;;;;21.30;71.20;;;;;;5074239;28;19939;-56
2023/09/20 09:57:18;;;;;;;;;;;21.30;71.10;;;;;;5075470;28;19930;-56
2023/09/20 09:59:44;;;;;;;;;;;21.30;71.40;;;;;;5074175;28;20421;-55
2023/09/20 10:02:18;;;;;;;;;;;21.30;71.50;;;;;;5075816;28;19908;-55
2023/09/20 10:04:45;;;;;;;;;;;21.30;71.80;;;;;;5075544;28;20348;-56
2023/09/20 10:07:14;;;;;;;;;;;21.30;72.20;;;;;;5075100;28;19913;-55
2023/09/20 10:09:41;;;;;;;;;;;21.30;71.70;;;;;;5073837;28;20364;-56
2023/09/20 10:12:07;;;;;;;;;;;21.30;71.50;;;;;;5073802;28;19927;-56
2023/09/20 10:14:36;;;;;;;;;;;21.30;71.70;;;;;;5074926;28;19912;-56
2023/09/20 10:17:02;;;;;;;;;;;21.30;71.80;;;;;;5073872;28;20361;-56
2023/09/20 10:19:28;;;;;;;;;;;21.30;72.00;;;;;;5075011;28;19912;-55
2023/09/20 10:22:01;;;;;;;;;;;21.30;71.80;;;;;;5074806;28;19979;-56
2023/09/20 10:24:29;;;;;;;;;;;21.30;71.80;;;;;;5074978;28;20322;-56
2023/09/20 10:26:57;;;;;;;;;;;21.30;71.90;;;;;;5074815;28;19916;-55
2023/09/20 10:29:26;;;;;;;;;;;21.30;71.80;;;;;;5074668;28;20007;-56
2023/09/20 10:31:55;;;;;;;;;;;21.40;71.90;;;;;;5074633;28;19908;-56
2023/09/20 10:34:21;;;;;;;;;;;21.40;72.00;;;;;;5074598;28;20380;-56
2023/09/20 10:36:53;;;;;;;;;;;21.40;72.00;;;;;;5073277;28;19916;-56
2023/09/20 10:39:18;;;;;;;;;;;21.40;72.10;;;;;;5074576;28;20351;-56
2023/09/20 10:41:44;;;;;;;;;;;21.40;71.90;;;;;;5073558;28;19908;-56
2023/09/20 10:44:28;;;;;;;;;;;21.40;71.80;;;;;;5074395;28;19916;-55
2023/09/20 10:46:55;;;;;;;;;;;21.50;71.90;;;;;;5074415;28;19935;-56
2023/09/20 10:49:41;;;;;;;;;;;21.50;71.80;;;;;;5074272;28;20067;-55
2023/09/20 10:52:07;;;;;;;;;;;21.50;71.80;;;;;;5073717;28;20300;-55
2023/09/20 10:54:36;;;;;;;;;;;21.40;71.70;;;;;;5074263;28;19912;-55
2023/09/20 10:57:09;;;;;;;;;;;21.40;71.70;;;;;;5074130;28;19915;-55
2023/09/20 10:59:36;;;;;;;;;;;21.50;71.70;;;;;;5074672;28;19909;-56
2023/09/20 11:02:09;;;;;;;;;;;21.50;71.90;;;;;;5073998;28;19955;-55
2023/09/20 11:04:35;;;;;;;;;;;21.50;72.10;;;;;;5074197;28;19954;-55
2023/09/20 11:07:02;;;;;;;;;;;21.50;71.80;;;;;;5074109;28;20288;-55
2023/09/20 11:09:31;;;;;;;;;;;21.50;72.00;;;;;;5072729;28;20288;-56
2023/09/20 11:11:58;;;;;;;;;;;21.60;71.90;;;;;;5072690;28;19912;-55
2023/09/20 11:14:24;;;;;;;;;;;21.60;71.60;;;;;;5073758;28;19924;-56
2023/09/20 11:16:49;;;;;;;;;;;21.60;71.60;;;;;;5073881;28;19909;-54
2023/09/20 11:19:14;;;;;;;;;;;21.60;71.70;;;;;;5073697;28;19989;-56
2023/09/20 11:21:40;;;;;;;;;;;21.60;71.90;;;;;;5073766;28;19958;-56
2023/09/20 11:24:08;;;;;;;;;;;21.60;71.80;;;;;;5073623;28;19909;-54
2023/09/20 11:26:34;;;;;;;;;;;21.60;71.90;;;;;;5073111;28;20059;-56
2023/09/20 11:28:59;;;;;;;;;;;21.60;71.70;;;;;;5073605;28;19917;-54
2023/09/20 11:31:27;;;;;;;;;;;21.70;71.30;;;;;;5072197;28;19955;-56
2023/09/20 11:33:57;;;;;;;;;;;21.80;71.20;;;;;;5073405;28;20273;-56
2023/09/20 11:36:22;;;;;;;;;;;21.80;70.80;;;;;;5073571;28;19908;-56
2023/09/20 11:38:48;;;;;;;;;;;21.90;70.70;;;;;;5072163;28;20391;-56
2023/09/20 11:41:14;;;;;;;;;;;21.90;70.60;;;;;;5073377;28;19909;-55
2023/09/20 11:43:41;;;;;;;;;;;21.90;70.30;;;;;;5072018;28;19943;-56
2023/09/20 11:46:12;;;;;;;;;;;22.00;71.10;;;;;;5073243;28;20376;-55
2023/09/20 11:48:38;;;;;;;;;;;22.00;70.40;;;;;;5073009;28;19913;-56
2023/09/20 11:51:04;;;;;;;;;;;22.00;70.20;;;;;;5072758;28;19915;-56
2023/09/20 11:53:30;;;;;;;;;;;22.10;70.10;;;;;;5073109;28;19916;-55
2023/09/20 11:55:55;;;;;;;;;;;22.20;69.90;;;;;;5072958;28;19916;-55
2023/09/20 11:58:21;;;;;;;;;;;22.20;69.80;;;;;;5073148;28;19958;-56
2023/09/20 12:00:47;;;;;;;;;;;22.20;70.10;;;;;;5073050;28;19908;-54
2023/09/20 12:03:13;;;;;;;;;;;22.30;69.70;;;;;;5072895;28;19908;-56
2023/09/20 12:05:39;;;;;;;;;;;22.30;69.40;;;;;;5073107;28;20280;-56
2023/09/20 12:08:06;;;;;;;;;;;22.30;69.30;;;;;;5072718;28;19909;-55
2023/09/20 12:10:31;;;;;;;;;;;22.30;69.60;;;;;;5073007;28;19909;-55
2023/09/20 12:12:57;;;;;;;;;;;22.20;69.40;;;;;;5071544;28;19912;-56
2023/09/20 12:15:23;;;;;;;;;;;22.20;69.50;;;;;;5072949;28;20357;-55
2023/09/20 12:17:50;;;;;;;;;;;22.30;69.60;;;;;;5072836;28;20364;-56
2023/09/20 12:20:16;;;;;;;;;;;22.30;70.30;;;;;;5072845;28;19954;-55
2023/09/20 12:22:43;;;;;;;;;;;22.30;69.30;;;;;;5054837;28;19909;-54
2023/09/20 12:25:11;;;;;;;;;;;22.30;69.20;;;;;;5071403;28;19909;-55
2023/09/20 12:27:37;;;;;;;;;;;22.30;69.30;;;;;;5072771;28;20381;-55
2023/09/20 12:30:04;;;;;;;;;;;22.30;69.00;;;;;;5072735;28;19935;-55
2023/09/20 12:32:31;;;;;;;;;;;22.30;68.80;;;;;;5073036;28;19916;-56
2023/09/20 12:34:57;;;;;;;;;;;22.30;68.80;;;;;;5072602;28;20315;-54
2023/09/20 12:37:23;;;;;;;;;;;22.40;68.80;;;;;;5071267;28;19909;-56
2023/09/20 12:39:50;;;;;;;;;;;22.50;68.00;;;;;;5072681;28;20365;-56
2023/09/20 12:42:16;;;;;;;;;;;22.50;67.90;;;;;;5072582;28;19908;-56
2023/09/20 12:44:41;;;;;;;;;;;22.50;68.00;;;;;;5072955;28;19916;-56
2023/09/20 12:47:07;;;;;;;;;;;22.50;67.90;;;;;;5071392;28;19908;-55
2023/09/20 12:49:36;;;;;;;;;;;22.60;67.70;;;;;;5072676;28;20011;-56
2023/09/20 12:52:03;;;;;;;;;;;22.60;67.40;;;;;;5072526;28;19927;-55
2023/09/20 12:54:29;;;;;;;;;;;22.60;67.30;;;;;;5072580;28;20012;-56
2023/09/20 12:56:55;;;;;;;;;;;22.60;67.50;;;;;;5072443;28;20376;-55
2023/09/20 12:59:26;;;;;;;;;;;22.60;67.30;;;;;;5072796;28;19915;-56
2023/09/20 13:01:55;;;;;;;;;;;22.60;67.10;;;;;;5079336;28;19915;-56
2023/09/20 13:04:21;;;;;;;;;;;22.60;67.10;;;;;;5074539;28;20327;-56
2023/09/20 13:06:46;;;;;;;;;;;22.60;67.30;;;;;;5076208;28;19909;-55
2023/09/20 13:09:15;;;;;;;;;;;22.50;67.40;;;;;;5076292;28;20295;-56
2023/09/20 13:11:41;;;;;;;;;;;22.50;67.50;;;;;;5076092;28;19915;-55
2023/09/20 13:14:07;;;;;;;;;;;22.40;67.70;;;;;;5076134;28;19912;-56
2023/09/20 13:16:34;;;;;;;;;;;22.40;67.80;;;;;;5074880;28;20380;-56
2023/09/20 13:19:00;;;;;;;;;;;22.40;67.90;;;;;;5076012;28;19908;-55
2023/09/20 13:21:26;;;;;;;;;;;22.50;67.60;;;;;;5075992;28;19909;-56
2023/09/20 13:23:52;;;;;;;;;;;22.50;67.40;;;;;;5075867;28;20429;-56
2023/09/20 13:26:17;;;;;;;;;;;22.60;67.50;;;;;;5075839;28;20428;-56
2023/09/20 13:28:43;;;;;;;;;;;22.60;67.60;;;;;;5075847;28;19908;-55
2023/09/20 13:31:11;;;;;;;;;;;22.50;67.70;;;;;;5075744;28;20361;-56
2023/09/20 13:33:38;;;;;;;;;;;22.50;67.60;;;;;;5075612;28;19916;-56
2023/09/20 13:36:04;;;;;;;;;;;22.50;67.40;;;;;;5075641;28;19908;-55
2023/09/20 13:38:29;;;;;;;;;;;22.60;67.60;;;;;;5075644;28;19908;-56
2023/09/20 13:40:55;;;;;;;;;;;22.60;67.40;;;;;;5075638;28;19951;-56
2023/09/20 13:43:21;;;;;;;;;;;22.60;67.40;;;;;;5075492;28;19962;-54
2023/09/20 13:45:46;;;;;;;;;;;22.60;67.40;;;;;;5075504;28;19909;-55
2023/09/20 13:48:12;;;;;;;;;;;22.60;67.60;;;;;;5075231;28;19957;-55
2023/09/20 13:50:39;;;;;;;;;;;22.60;67.40;;;;;;5074095;28;19913;-56
2023/09/20 13:53:05;;;;;;;;;;;22.60;67.10;;;;;;5075109;28;19928;-56
2023/09/20 13:55:31;;;;;;;;;;;22.60;66.90;;;;;;5075306;28;19908;-55
2023/09/20 13:57:57;;;;;;;;;;;22.70;66.70;;;;;;5074026;28;20317;-56
2023/09/20 14:00:27;;;;;;;;;;;22.70;66.60;;;;;;5075081;28;19916;-56
2023/09/20 14:02:53;;;;;;;;;;;22.70;66.40;;;;;;5075221;28;20284;-56
2023/09/20 14:05:18;;;;;;;;;;;22.80;66.20;;;;;;5075190;28;19908;-56
2023/09/20 14:07:44;;;;;;;;;;;22.80;65.30;;;;;;5075035;28;20369;-55
2023/09/20 14:10:10;;;;;;;;;;;22.80;65.00;;;;;;5074771;28;20375;-56
2023/09/20 14:12:37;;;;;;;;;;;22.80;64.80;;;;;;5074962;28;19909;-54
2023/09/20 14:15:03;;;;;;;;;;;22.80;64.70;;;;;;5073671;28;20253;-56
2023/09/20 14:17:30;;;;;;;;;;;22.70;64.60;;;;;;5073738;28;19912;-56
2023/09/20 14:19:56;;;;;;;;;;;22.70;64.50;;;;;;5074884;28;19954;-56
2023/09/20 14:22:21;;;;;;;;;;;22.60;64.40;;;;;;5074697;28;19909;-56
2023/09/20 14:24:47;;;;;;;;;;;22.60;64.60;;;;;;5073343;28;19915;-55
2023/09/20 14:27:12;;;;;;;;;;;22.60;64.30;;;;;;5074674;28;19913;-56
2023/09/20 14:29:37;;;;;;;;;;;22.60;64.10;;;;;;5074659;28;19916;-56
2023/09/20 14:32:04;;;;;;;;;;;22.60;64.00;;;;;;5074404;28;19908;-56
2023/09/20 14:34:30;;;;;;;;;;;22.60;64.10;;;;;;5074546;28;19963;-55
2023/09/20 14:36:56;;;;;;;;;;;22.60;64.30;;;;;;5074474;28;19915;-56
2023/09/20 14:39:22;;;;;;;;;;;22.60;64.60;;;;;;5074492;28;19908;-56
2023/09/20 14:41:48;;;;;;;;;;;22.70;64.50;;;;;;5073193;28;20300;-56
2023/09/20 14:44:13;;;;;;;;;;;22.70;64.30;;;;;;5074444;28;19914;-56
2023/09/20 14:46:40;;;;;;;;;;;22.70;64.50;;;;;;5074338;28;19958;-56
2023/09/20 14:49:05;;;;;;;;;;;22.60;64.60;;;;;;5074417;28;19909;-55
2023/09/20 14:51:31;;;;;;;;;;;22.60;64.80;;;;;;5074107;28;19970;-56
2023/09/20 14:53:58;;;;;;;;;;;22.60;65.10;;;;;;5074190;28;19913;-56